sensor_id;sensor_type;location;lat;lon;timestamp;temperature;humidity
4787;DHT22;62338;48.832;9.422;2022-10-16T00:00:44;15.10;99.90
4787;DHT22;62338;48.832;9.422;2022-10-16T00:02:45;15.20;99.90
4787;DHT22;62338;48.832;9.422;2022-10-16T00:04:52;15.10;99.90
4787;DHT22;62338;48.832;9.422;2022-10-16T00:06:56;15.10;99.90
4787;DHT22;62338;48.832;9.422;2022-10-16T00:08:57;15.10;99.90
4787;DHT22;62338;48.832;9.422;2022-10-16T00:13:03;15.20;99.90
4787;DHT22;62338;48.832;9.422;2022-10-16T00:15:05;15.20;99.90
4787;DHT22;62338;48.832;9.422;2022-10-16T00:17:07;15.30;99.90
4787;DHT22;62338;48.832;9.422;2022-10-16T00:19:10;15.30;99.90
4787;DHT22;62338;48.832;9.422;2022-10-16T00:21:20;15.20;99.90
4787;DHT22;62338;48.832;9.422;2022-10-16T00:23:22;15.20;99.90
4787;DHT22;62338;48.832;9.422;2022-10-16T00:25:24;15.20;99.90
4787;DHT22;62338;48.832;9.422;2022-10-16T00:27:25;15.20;99.90
4787;DHT22;62338;48.832;9.422;2022-10-16T00:29:27;15.10;99.90
4787;DHT22;62338;48.832;9.422;2022-10-16T00:31:29;15.20;99.90
4787;DHT22;62338;48.832;9.422;2022-10-16T00:33:31;15.10;99.90
4787;DHT22;62338;48.832;9.422;2022-10-16T00:35:32;15.10;99.90
4787;DHT22;62338;48.832;9.422;2022-10-16T00:37:34;15.00;99.90
4787;DHT22;62338;48.832;9.422;2022-10-16T00:39:36;15.00;99.90
4787;DHT22;62338;48.832;9.422;2022-10-16T00:41:38;14.90;99.90
4787;DHT22;62338;48.832;9.422;2022-10-16T00:45:43;14.90;99.90
4787;DHT22;62338;48.832;9.422;2022-10-16T00:47:45;14.90;99.90
4787;DHT22;62338;48.832;9.422;2022-10-16T00:49:55;14.80;99.90
4787;DHT22;62338;48.832;9.422;2022-10-16T00:51:58;14.80;99.90
4787;DHT22;62338;48.832;9.422;2022-10-16T00:54:02;14.70;99.90
4787;DHT22;62338;48.832;9.422;2022-10-16T00:56:04;14.60;99.90
4787;DHT22;62338;48.832;9.422;2022-10-16T00:58:06;14.60;99.90
4787;DHT22;62338;48.832;9.422;2022-10-16T01:00:14;14.60;99.90
4787;DHT22;62338;48.832;9.422;2022-10-16T01:02:17;14.60;99.90
4787;DHT22;62338;48.832;9.422;2022-10-16T01:04:19;14.60;99.90
4787;DHT22;62338;48.832;9.422;2022-10-16T01:08:49;14.70;99.90
4787;DHT22;62338;48.832;9.422;2022-10-16T01:10:59;14.70;99.90
4787;DHT22;62338;48.832;9.422;2022-10-16T01:13:18;14.60;99.90
4787;DHT22;62338;48.832;9.422;2022-10-16T01:15:28;14.60;99.90
4787;DHT22;62338;48.832;9.422;2022-10-16T01:17:53;14.60;99.90
4787;DHT22;62338;48.832;9.422;2022-10-16T01:22:15;14.60;99.90
4787;DHT22;62338;48.832;9.422;2022-10-16T01:24:44;14.70;99.90
4787;DHT22;62338;48.832;9.422;2022-10-16T01:29:18;14.80;99.90
4787;DHT22;62338;48.832;9.422;2022-10-16T01:31:27;14.80;99.90
4787;DHT22;62338;48.832;9.422;2022-10-16T01:33:36;14.90;99.90
4787;DHT22;62338;48.832;9.422;2022-10-16T01:35:51;14.90;99.90
4787;DHT22;62338;48.832;9.422;2022-10-16T01:38:04;14.90;99.90
4787;DHT22;62338;48.832;9.422;2022-10-16T01:40:11;14.90;99.90
4787;DHT22;62338;48.832;9.422;2022-10-16T01:42:37;14.90;99.90
4787;DHT22;62338;48.832;9.422;2022-10-16T01:44:41;14.90;99.90
4787;DHT22;62338;48.832;9.422;2022-10-16T01:46:46;14.90;99.90
4787;DHT22;62338;48.832;9.422;2022-10-16T01:48:50;15.00;99.90
4787;DHT22;62338;48.832;9.422;2022-10-16T01:50:57;15.00;99.90
4787;DHT22;62338;48.832;9.422;2022-10-16T01:53:01;15.10;99.90
4787;DHT22;62338;48.832;9.422;2022-10-16T01:55:06;15.10;99.90
4787;DHT22;62338;48.832;9.422;2022-10-16T01:57:10;15.10;99.90
4787;DHT22;62338;48.832;9.422;2022-10-16T01:59:17;15.10;99.90
4787;DHT22;62338;48.832;9.422;2022-10-16T02:01:22;15.00;99.90
4787;DHT22;62338;48.832;9.422;2022-10-16T02:03:24;14.90;99.90
4787;DHT22;62338;48.832;9.422;2022-10-16T02:05:31;14.80;99.90
4787;DHT22;62338;48.832;9.422;2022-10-16T02:07:33;14.80;99.90
4787;DHT22;62338;48.832;9.422;2022-10-16T02:09:35;14.80;99.90
4787;DHT22;62338;48.832;9.422;2022-10-16T02:11:38;14.80;99.90
4787;DHT22;62338;48.832;9.422;2022-10-16T02:13:45;14.80;99.90
4787;DHT22;62338;48.832;9.422;2022-10-16T02:15:48;14.80;99.90
4787;DHT22;62338;48.832;9.422;2022-10-16T02:17:49;14.80;99.90
4787;DHT22;62338;48.832;9.422;2022-10-16T02:19:53;14.80;99.90
4787;DHT22;62338;48.832;9.422;2022-10-16T02:22:04;14.90;99.90
4787;DHT22;62338;48.832;9.422;2022-10-16T02:24:39;14.90;99.90
4787;DHT22;62338;48.832;9.422;2022-10-16T02:27:06;15.00;99.90
4787;DHT22;62338;48.832;9.422;2022-10-16T02:29:12;15.00;99.90
4787;DHT22;62338;48.832;9.422;2022-10-16T02:31:21;15.00;99.90
4787;DHT22;62338;48.832;9.422;2022-10-16T02:33:25;15.00;99.90
4787;DHT22;62338;48.832;9.422;2022-10-16T02:35:29;15.00;99.90
4787;DHT22;62338;48.832;9.422;2022-10-16T02:37:32;14.90;99.90
4787;DHT22;62338;48.832;9.422;2022-10-16T02:39:35;14.90;99.90
4787;DHT22;62338;48.832;9.422;2022-10-16T02:41:37;14.90;99.90
4787;DHT22;62338;48.832;9.422;2022-10-16T02:43:38;14.80;99.90
4787;DHT22;62338;48.832;9.422;2022-10-16T02:45:40;14.80;99.90
4787;DHT22;62338;48.832;9.422;2022-10-16T02:47:42;14.90;99.90
4787;DHT22;62338;48.832;9.422;2022-10-16T02:49:43;14.90;99.90
4787;DHT22;62338;48.832;9.422;2022-10-16T02:51:45;14.90;99.90
4787;DHT22;62338;48.832;9.422;2022-10-16T02:53:47;14.90;99.90
4787;DHT22;62338;48.832;9.422;2022-10-16T02:55:48;14.80;99.90
4787;DHT22;62338;48.832;9.422;2022-10-16T02:57:50;14.80;99.90
4787;DHT22;62338;48.832;9.422;2022-10-16T02:59:52;14.80;99.90
4787;DHT22;62338;48.832;9.422;2022-10-16T03:01:53;14.80;99.90
4787;DHT22;62338;48.832;9.422;2022-10-16T03:03:55;14.80;99.90
4787;DHT22;62338;48.832;9.422;2022-10-16T03:05:57;14.80;99.90
4787;DHT22;62338;48.832;9.422;2022-10-16T03:07:58;14.70;99.90
4787;DHT22;62338;48.832;9.422;2022-10-16T03:10:02;14.70;99.90
4787;DHT22;62338;48.832;9.422;2022-10-16T03:12:04;14.70;99.90
4787;DHT22;62338;48.832;9.422;2022-10-16T03:14:05;14.70;99.90
4787;DHT22;62338;48.832;9.422;2022-10-16T03:16:07;14.80;99.90
4787;DHT22;62338;48.832;9.422;2022-10-16T03:18:09;14.80;99.90
4787;DHT22;62338;48.832;9.422;2022-10-16T03:20:11;14.70;99.90
4787;DHT22;62338;48.832;9.422;2022-10-16T03:22:13;14.70;99.90
4787;DHT22;62338;48.832;9.422;2022-10-16T03:24:14;14.70;99.90
4787;DHT22;62338;48.832;9.422;2022-10-16T03:26:16;14.70;99.90
4787;DHT22;62338;48.832;9.422;2022-10-16T03:28:18;14.70;99.90
4787;DHT22;62338;48.832;9.422;2022-10-16T03:30:20;14.70;99.90
4787;DHT22;62338;48.832;9.422;2022-10-16T03:32:22;14.70;99.90
4787;DHT22;62338;48.832;9.422;2022-10-16T03:34:26;14.80;99.90
4787;DHT22;62338;48.832;9.422;2022-10-16T03:36:28;14.80;99.90
4787;DHT22;62338;48.832;9.422;2022-10-16T03:38:29;14.70;99.90
4787;DHT22;62338;48.832;9.422;2022-10-16T03:40:31;14.60;99.90
4787;DHT22;62338;48.832;9.422;2022-10-16T03:42:33;14.60;99.90
4787;DHT22;62338;48.832;9.422;2022-10-16T03:44:35;14.50;99.90
4787;DHT22;62338;48.832;9.422;2022-10-16T03:46:37;14.50;99.90
4787;DHT22;62338;48.832;9.422;2022-10-16T03:48:38;14.50;99.90
4787;DHT22;62338;48.832;9.422;2022-10-16T03:50:41;14.40;99.90
4787;DHT22;62338;48.832;9.422;2022-10-16T03:52:43;14.40;99.90
4787;DHT22;62338;48.832;9.422;2022-10-16T03:54:44;14.50;99.90
4787;DHT22;62338;48.832;9.422;2022-10-16T03:56:46;14.50;99.90
4787;DHT22;62338;48.832;9.422;2022-10-16T03:58:48;14.50;99.90
4787;DHT22;62338;48.832;9.422;2022-10-16T04:00:49;14.50;99.90
4787;DHT22;62338;48.832;9.422;2022-10-16T04:02:51;14.50;99.90
4787;DHT22;62338;48.832;9.422;2022-10-16T04:04:53;14.50;99.90
4787;DHT22;62338;48.832;9.422;2022-10-16T04:06:54;14.50;99.90
4787;DHT22;62338;48.832;9.422;2022-10-16T04:08:56;14.50;99.90
4787;DHT22;62338;48.832;9.422;2022-10-16T04:10:58;14.50;99.90
4787;DHT22;62338;48.832;9.422;2022-10-16T04:12:59;14.60;99.90
4787;DHT22;62338;48.832;9.422;2022-10-16T04:15:01;14.50;99.90
4787;DHT22;62338;48.832;9.422;2022-10-16T04:17:03;14.50;99.90
4787;DHT22;62338;48.832;9.422;2022-10-16T04:19:05;14.50;99.90
4787;DHT22;62338;48.832;9.422;2022-10-16T04:21:07;14.50;99.90
4787;DHT22;62338;48.832;9.422;2022-10-16T04:23:08;14.50;99.90
4787;DHT22;62338;48.832;9.422;2022-10-16T04:25:11;14.50;99.90
4787;DHT22;62338;48.832;9.422;2022-10-16T04:27:13;14.50;99.90
4787;DHT22;62338;48.832;9.422;2022-10-16T04:29:14;14.40;99.90
4787;DHT22;62338;48.832;9.422;2022-10-16T04:31:16;14.50;99.90
4787;DHT22;62338;48.832;9.422;2022-10-16T04:33:18;14.50;99.90
4787;DHT22;62338;48.832;9.422;2022-10-16T04:35:20;14.50;99.90
4787;DHT22;62338;48.832;9.422;2022-10-16T04:37:26;14.40;99.90
4787;DHT22;62338;48.832;9.422;2022-10-16T04:39:28;14.50;99.90
4787;DHT22;62338;48.832;9.422;2022-10-16T04:41:30;14.50;99.90
4787;DHT22;62338;48.832;9.422;2022-10-16T04:43:32;14.50;99.90
4787;DHT22;62338;48.832;9.422;2022-10-16T04:45:34;14.50;99.90
4787;DHT22;62338;48.832;9.422;2022-10-16T04:47:36;14.50;99.90
4787;DHT22;62338;48.832;9.422;2022-10-16T04:49:38;14.50;99.90
4787;DHT22;62338;48.832;9.422;2022-10-16T04:51:40;14.50;99.90
4787;DHT22;62338;48.832;9.422;2022-10-16T04:53:41;14.50;99.90
4787;DHT22;62338;48.832;9.422;2022-10-16T04:55:43;14.60;99.90
4787;DHT22;62338;48.832;9.422;2022-10-16T04:57:45;14.60;99.90
4787;DHT22;62338;48.832;9.422;2022-10-16T04:59:46;14.60;99.90
4787;DHT22;62338;48.832;9.422;2022-10-16T05:01:48;14.60;99.90
4787;DHT22;62338;48.832;9.422;2022-10-16T05:03:50;14.60;99.90
4787;DHT22;62338;48.832;9.422;2022-10-16T05:05:52;14.70;99.90
4787;DHT22;62338;48.832;9.422;2022-10-16T05:07:54;14.70;99.90
4787;DHT22;62338;48.832;9.422;2022-10-16T05:09:55;14.70;99.90
4787;DHT22;62338;48.832;9.422;2022-10-16T05:11:57;14.70;99.90
4787;DHT22;62338;48.832;9.422;2022-10-16T05:13:59;14.80;99.90
4787;DHT22;62338;48.832;9.422;2022-10-16T05:16:01;14.80;99.90
4787;DHT22;62338;48.832;9.422;2022-10-16T05:18:03;14.80;99.90
4787;DHT22;62338;48.832;9.422;2022-10-16T05:20:05;14.70;99.90
4787;DHT22;62338;48.832;9.422;2022-10-16T05:22:07;14.80;99.90
4787;DHT22;62338;48.832;9.422;2022-10-16T05:24:09;14.80;99.90
4787;DHT22;62338;48.832;9.422;2022-10-16T05:26:10;14.80;99.90
4787;DHT22;62338;48.832;9.422;2022-10-16T05:28:12;14.80;99.90
4787;DHT22;62338;48.832;9.422;2022-10-16T05:30:14;14.80;99.90
4787;DHT22;62338;48.832;9.422;2022-10-16T05:32:17;14.80;99.90
4787;DHT22;62338;48.832;9.422;2022-10-16T05:34:20;14.80;99.90
4787;DHT22;62338;48.832;9.422;2022-10-16T05:36:21;14.80;99.90
4787;DHT22;62338;48.832;9.422;2022-10-16T05:38:23;14.90;99.90
4787;DHT22;62338;48.832;9.422;2022-10-16T05:40:25;15.00;99.90
4787;DHT22;62338;48.832;9.422;2022-10-16T05:42:26;15.00;99.90
4787;DHT22;62338;48.832;9.422;2022-10-16T05:44:28;15.00;99.90
4787;DHT22;62338;48.832;9.422;2022-10-16T05:46:30;15.00;99.90
4787;DHT22;62338;48.832;9.422;2022-10-16T05:48:32;15.00;99.90
4787;DHT22;62338;48.832;9.422;2022-10-16T05:50:34;14.90;99.90
4787;DHT22;62338;48.832;9.422;2022-10-16T05:52:36;14.90;99.90
4787;DHT22;62338;48.832;9.422;2022-10-16T05:54:37;14.80;99.90
4787;DHT22;62338;48.832;9.422;2022-10-16T05:56:39;14.80;99.90
4787;DHT22;62338;48.832;9.422;2022-10-16T05:58:41;14.70;99.90
4787;DHT22;62338;48.832;9.422;2022-10-16T06:00:43;14.70;99.90
4787;DHT22;62338;48.832;9.422;2022-10-16T06:02:44;14.70;99.90
4787;DHT22;62338;48.832;9.422;2022-10-16T06:04:46;14.70;99.90
4787;DHT22;62338;48.832;9.422;2022-10-16T06:06:48;14.70;99.90
4787;DHT22;62338;48.832;9.422;2022-10-16T06:08:50;14.80;99.90
4787;DHT22;62338;48.832;9.422;2022-10-16T06:11:02;14.90;99.90
4787;DHT22;62338;48.832;9.422;2022-10-16T06:13:04;14.90;99.90
4787;DHT22;62338;48.832;9.422;2022-10-16T06:15:07;15.00;99.90
4787;DHT22;62338;48.832;9.422;2022-10-16T06:17:08;15.10;90.50
4787;DHT22;62338;48.832;9.422;2022-10-16T06:19:10;15.20;76.80
4787;DHT22;62338;48.832;9.422;2022-10-16T06:21:17;15.30;75.80
4787;DHT22;62338;48.832;9.422;2022-10-16T06:23:19;15.30;55.40
4787;DHT22;62338;48.832;9.422;2022-10-16T06:25:21;15.40;44.40
4787;DHT22;62338;48.832;9.422;2022-10-16T06:27:22;15.50;11.50
4787;DHT22;62338;48.832;9.422;2022-10-16T06:29:24;15.60;18.90
4787;DHT22;62338;48.832;9.422;2022-10-16T06:31:27;15.60;21.20
4787;DHT22;62338;48.832;9.422;2022-10-16T06:33:31;15.60;27.60
4787;DHT22;62338;48.832;9.422;2022-10-16T06:35:33;15.70;55.60
4787;DHT22;62338;48.832;9.422;2022-10-16T06:37:35;15.70;52.60
4787;DHT22;62338;48.832;9.422;2022-10-16T06:39:36;15.70;43.90
4787;DHT22;62338;48.832;9.422;2022-10-16T06:41:38;15.70;14.30
4787;DHT22;62338;48.832;9.422;2022-10-16T06:43:40;15.80;21.50
4787;DHT22;62338;48.832;9.422;2022-10-16T06:45:42;15.90;21.50
4787;DHT22;62338;48.832;9.422;2022-10-16T06:47:43;16.00;1.00
4787;DHT22;62338;48.832;9.422;2022-10-16T06:49:45;16.10;1.00
4787;DHT22;62338;48.832;9.422;2022-10-16T06:51:54;16.10;1.00
4787;DHT22;62338;48.832;9.422;2022-10-16T06:53:56;16.20;1.00
4787;DHT22;62338;48.832;9.422;2022-10-16T06:56:16;16.20;1.00
4787;DHT22;62338;48.832;9.422;2022-10-16T06:58:18;16.40;1.00
4787;DHT22;62338;48.832;9.422;2022-10-16T07:00:20;16.60;1.00
4787;DHT22;62338;48.832;9.422;2022-10-16T07:02:22;16.90;1.00
4787;DHT22;62338;48.832;9.422;2022-10-16T07:04:24;17.00;1.00
4787;DHT22;62338;48.832;9.422;2022-10-16T07:06:26;17.00;1.00
4787;DHT22;62338;48.832;9.422;2022-10-16T07:08:31;17.00;1.00
4787;DHT22;62338;48.832;9.422;2022-10-16T07:10:33;16.90;1.00
4787;DHT22;62338;48.832;9.422;2022-10-16T07:12:35;16.80;1.00
4787;DHT22;62338;48.832;9.422;2022-10-16T07:14:36;16.70;1.00
4787;DHT22;62338;48.832;9.422;2022-10-16T07:16:38;16.60;1.00
4787;DHT22;62338;48.832;9.422;2022-10-16T07:18:40;16.50;1.00
4787;DHT22;62338;48.832;9.422;2022-10-16T07:20:43;16.40;1.00
4787;DHT22;62338;48.832;9.422;2022-10-16T07:22:45;16.50;1.00
4787;DHT22;62338;48.832;9.422;2022-10-16T07:24:47;16.50;1.00
4787;DHT22;62338;48.832;9.422;2022-10-16T07:26:53;16.60;1.00
4787;DHT22;62338;48.832;9.422;2022-10-16T07:28:55;16.70;1.00
4787;DHT22;62338;48.832;9.422;2022-10-16T07:31:00;16.70;1.00
4787;DHT22;62338;48.832;9.422;2022-10-16T07:33:02;16.80;1.00
4787;DHT22;62338;48.832;9.422;2022-10-16T07:35:05;16.90;1.00
4787;DHT22;62338;48.832;9.422;2022-10-16T07:37:07;17.00;1.00
4787;DHT22;62338;48.832;9.422;2022-10-16T07:39:08;17.00;1.00
4787;DHT22;62338;48.832;9.422;2022-10-16T07:41:12;16.80;1.00
4787;DHT22;62338;48.832;9.422;2022-10-16T07:43:14;16.70;1.00
4787;DHT22;62338;48.832;9.422;2022-10-16T07:45:16;16.60;1.00
4787;DHT22;62338;48.832;9.422;2022-10-16T07:47:17;16.60;1.00
4787;DHT22;62338;48.832;9.422;2022-10-16T07:49:19;16.50;1.00
4787;DHT22;62338;48.832;9.422;2022-10-16T07:51:24;16.40;1.00
4787;DHT22;62338;48.832;9.422;2022-10-16T07:53:26;16.30;1.00
4787;DHT22;62338;48.832;9.422;2022-10-16T07:55:28;16.20;1.00
4787;DHT22;62338;48.832;9.422;2022-10-16T07:57:30;16.20;1.00
4787;DHT22;62338;48.832;9.422;2022-10-16T07:59:32;16.20;1.00
4787;DHT22;62338;48.832;9.422;2022-10-16T08:01:33;16.20;9.00
4787;DHT22;62338;48.832;9.422;2022-10-16T08:03:35;16.30;1.00
4787;DHT22;62338;48.832;9.422;2022-10-16T08:05:37;16.30;1.00
4787;DHT22;62338;48.832;9.422;2022-10-16T08:07:39;16.40;1.00
4787;DHT22;62338;48.832;9.422;2022-10-16T08:09:40;16.50;1.00
4787;DHT22;62338;48.832;9.422;2022-10-16T08:11:42;16.60;1.00
4787;DHT22;62338;48.832;9.422;2022-10-16T08:13:44;16.70;1.00
4787;DHT22;62338;48.832;9.422;2022-10-16T08:15:45;16.80;1.00
4787;DHT22;62338;48.832;9.422;2022-10-16T08:17:58;16.80;1.00
4787;DHT22;62338;48.832;9.422;2022-10-16T08:20:00;16.90;1.00
4787;DHT22;62338;48.832;9.422;2022-10-16T08:22:02;17.00;1.00
4787;DHT22;62338;48.832;9.422;2022-10-16T08:24:03;17.10;1.00
4787;DHT22;62338;48.832;9.422;2022-10-16T08:26:06;17.20;1.00
4787;DHT22;62338;48.832;9.422;2022-10-16T08:28:10;17.20;1.00
4787;DHT22;62338;48.832;9.422;2022-10-16T08:30:13;17.30;1.00
4787;DHT22;62338;48.832;9.422;2022-10-16T08:32:15;17.30;1.00
4787;DHT22;62338;48.832;9.422;2022-10-16T08:34:17;17.40;1.00
4787;DHT22;62338;48.832;9.422;2022-10-16T08:36:19;17.50;1.00
4787;DHT22;62338;48.832;9.422;2022-10-16T08:38:21;17.70;1.00
4787;DHT22;62338;48.832;9.422;2022-10-16T08:40:28;18.00;1.00
4787;DHT22;62338;48.832;9.422;2022-10-16T08:42:52;18.60;99.90
4787;DHT22;62338;48.832;9.422;2022-10-16T08:48:30;18.70;99.90
4787;DHT22;62338;48.832;9.422;2022-10-16T08:50:02;18.80;99.90
4787;DHT22;62338;48.832;9.422;2022-10-16T08:52:13;19.00;99.90
4787;DHT22;62338;48.832;9.422;2022-10-16T08:54:34;19.30;68.80
4787;DHT22;62338;48.832;9.422;2022-10-16T08:56:38;19.40;99.90
4787;DHT22;62338;48.832;9.422;2022-10-16T08:58:40;19.50;1.00
4787;DHT22;62338;48.832;9.422;2022-10-16T09:00:43;19.50;99.90
4787;DHT22;62338;48.832;9.422;2022-10-16T09:03:03;19.70;1.00
4787;DHT22;62338;48.832;9.422;2022-10-16T09:17:20;18.80;1.00
4787;DHT22;62338;48.832;9.422;2022-10-16T09:19:31;18.70;99.90
4787;DHT22;62338;48.832;9.422;2022-10-16T09:21:36;18.70;99.90
4787;DHT22;62338;48.832;9.422;2022-10-16T09:23:39;18.60;99.90
4787;DHT22;62338;48.832;9.422;2022-10-16T09:25:44;18.60;99.90
4787;DHT22;62338;48.832;9.422;2022-10-16T09:27:48;18.60;99.90
4787;DHT22;62338;48.832;9.422;2022-10-16T09:29:50;18.80;99.90
4787;DHT22;62338;48.832;9.422;2022-10-16T09:31:57;19.10;99.90
4787;DHT22;62338;48.832;9.422;2022-10-16T09:34:31;19.30;99.90
4787;DHT22;62338;48.832;9.422;2022-10-16T09:36:40;19.90;99.90
4787;DHT22;62338;48.832;9.422;2022-10-16T09:38:43;21.10;1.00
4787;DHT22;62338;48.832;9.422;2022-10-16T09:40:45;22.20;99.90
4787;DHT22;62338;48.832;9.422;2022-10-16T09:45:23;22.40;99.90
4787;DHT22;62338;48.832;9.422;2022-10-16T09:47:29;21.90;1.00
4787;DHT22;62338;48.832;9.422;2022-10-16T09:49:31;21.10;1.00
4787;DHT22;62338;48.832;9.422;2022-10-16T09:51:35;20.80;1.00
4787;DHT22;62338;48.832;9.422;2022-10-16T09:53:43;21.40;99.90
4787;DHT22;62338;48.832;9.422;2022-10-16T09:55:53;21.70;99.90
4787;DHT22;62338;48.832;9.422;2022-10-16T09:57:55;21.30;99.90
4787;DHT22;62338;48.832;9.422;2022-10-16T09:59:57;20.70;99.90
4787;DHT22;62338;48.832;9.422;2022-10-16T10:02:11;20.20;1.00
4787;DHT22;62338;48.832;9.422;2022-10-16T10:04:15;20.30;99.90
4787;DHT22;62338;48.832;9.422;2022-10-16T10:06:31;21.00;1.00
4787;DHT22;62338;48.832;9.422;2022-10-16T10:08:35;22.30;1.00
4787;DHT22;62338;48.832;9.422;2022-10-16T10:10:41;22.90;1.00
4787;DHT22;62338;48.832;9.422;2022-10-16T10:12:45;23.40;99.90
4787;DHT22;62338;48.832;9.422;2022-10-16T10:14:51;22.70;1.00
4787;DHT22;62338;48.832;9.422;2022-10-16T10:17:12;22.90;1.00
4787;DHT22;62338;48.832;9.422;2022-10-16T10:21:17;24.10;99.90
4787;DHT22;62338;48.832;9.422;2022-10-16T10:23:24;24.00;37.20
4787;DHT22;62338;48.832;9.422;2022-10-16T10:27:57;23.60;1.00
4787;DHT22;62338;48.832;9.422;2022-10-16T10:33:07;25.50;38.00
4787;DHT22;62338;48.832;9.422;2022-10-16T10:35:34;26.30;1.00
4787;DHT22;62338;48.832;9.422;2022-10-16T10:39:45;25.50;1.00
4787;DHT22;62338;48.832;9.422;2022-10-16T10:42:22;25.20;99.90
4787;DHT22;62338;48.832;9.422;2022-10-16T10:46:42;25.40;1.00
4787;DHT22;62338;48.832;9.422;2022-10-16T10:51:13;24.70;99.90
4787;DHT22;62338;48.832;9.422;2022-10-16T10:58:02;24.60;29.30
4787;DHT22;62338;48.832;9.422;2022-10-16T11:00:31;24.70;22.60
4787;DHT22;62338;48.832;9.422;2022-10-16T11:02:52;24.70;25.70
4787;DHT22;62338;48.832;9.422;2022-10-16T11:05:36;24.90;1.00
4787;DHT22;62338;48.832;9.422;2022-10-16T11:07:36;25.30;1.00
4787;DHT22;62338;48.832;9.422;2022-10-16T11:09:47;25.90;1.00
4787;DHT22;62338;48.832;9.422;2022-10-16T11:14:18;25.60;1.00
4787;DHT22;62338;48.832;9.422;2022-10-16T11:16:27;25.60;1.00
4787;DHT22;62338;48.832;9.422;2022-10-16T11:18:46;25.90;1.00
4787;DHT22;62338;48.832;9.422;2022-10-16T11:21:04;25.60;1.00
4787;DHT22;62338;48.832;9.422;2022-10-16T11:23:18;25.50;20.70
4787;DHT22;62338;48.832;9.422;2022-10-16T11:25:31;25.20;99.90
4787;DHT22;62338;48.832;9.422;2022-10-16T11:27:47;25.40;99.90
4787;DHT22;62338;48.832;9.422;2022-10-16T11:29:59;25.50;19.30
4787;DHT22;62338;48.832;9.422;2022-10-16T11:32:18;25.10;1.00
4787;DHT22;62338;48.832;9.422;2022-10-16T11:34:36;25.10;1.00
4787;DHT22;62338;48.832;9.422;2022-10-16T11:37:05;25.20;1.00
4787;DHT22;62338;48.832;9.422;2022-10-16T11:39:20;25.30;24.20
4787;DHT22;62338;48.832;9.422;2022-10-16T11:43:41;25.20;1.00
4787;DHT22;62338;48.832;9.422;2022-10-16T11:45:49;25.30;1.00
4787;DHT22;62338;48.832;9.422;2022-10-16T11:48:15;25.60;1.00
4787;DHT22;62338;48.832;9.422;2022-10-16T11:50:28;25.70;1.00
4787;DHT22;62338;48.832;9.422;2022-10-16T11:52:33;25.50;1.00
4787;DHT22;62338;48.832;9.422;2022-10-16T11:54:39;25.70;1.00
4787;DHT22;62338;48.832;9.422;2022-10-16T11:56:46;25.70;1.00
4787;DHT22;62338;48.832;9.422;2022-10-16T11:59:11;26.10;1.00
4787;DHT22;62338;48.832;9.422;2022-10-16T12:04:14;26.50;1.00
4787;DHT22;62338;48.832;9.422;2022-10-16T12:08:34;27.70;99.90
4787;DHT22;62338;48.832;9.422;2022-10-16T12:10:37;28.10;99.90
4787;DHT22;62338;48.832;9.422;2022-10-16T12:12:44;28.30;99.90
4787;DHT22;62338;48.832;9.422;2022-10-16T12:14:47;27.80;99.90
4787;DHT22;62338;48.832;9.422;2022-10-16T12:17:37;27.90;99.90
4787;DHT22;62338;48.832;9.422;2022-10-16T12:19:39;28.90;99.90
4787;DHT22;62338;48.832;9.422;2022-10-16T12:21:42;28.30;99.90
4787;DHT22;62338;48.832;9.422;2022-10-16T12:23:50;27.90;99.90
4787;DHT22;62338;48.832;9.422;2022-10-16T12:25:57;27.60;99.90
4787;DHT22;62338;48.832;9.422;2022-10-16T12:28:19;27.90;99.90
4787;DHT22;62338;48.832;9.422;2022-10-16T12:30:26;28.10;99.90
4787;DHT22;62338;48.832;9.422;2022-10-16T12:32:38;28.30;99.90
4787;DHT22;62338;48.832;9.422;2022-10-16T12:34:48;28.70;99.90
4787;DHT22;62338;48.832;9.422;2022-10-16T12:36:50;28.60;99.90
4787;DHT22;62338;48.832;9.422;2022-10-16T12:38:53;27.80;99.90
4787;DHT22;62338;48.832;9.422;2022-10-16T12:40:59;27.10;99.90
4787;DHT22;62338;48.832;9.422;2022-10-16T12:45:30;25.90;99.90
4787;DHT22;62338;48.832;9.422;2022-10-16T12:49:38;25.60;1.00
4787;DHT22;62338;48.832;9.422;2022-10-16T12:51:49;25.80;1.00
4787;DHT22;62338;48.832;9.422;2022-10-16T12:58:27;25.50;1.00
4787;DHT22;62338;48.832;9.422;2022-10-16T13:00:44;25.60;1.00
4787;DHT22;62338;48.832;9.422;2022-10-16T13:02:59;25.30;1.00
4787;DHT22;62338;48.832;9.422;2022-10-16T13:07:33;24.80;99.90
4787;DHT22;62338;48.832;9.422;2022-10-16T13:16:22;24.20;1.00
4787;DHT22;62338;48.832;9.422;2022-10-16T13:21:05;23.40;1.00
4787;DHT22;62338;48.832;9.422;2022-10-16T13:23:13;23.20;99.90
4787;DHT22;62338;48.832;9.422;2022-10-16T13:29:42;25.60;99.90
4787;DHT22;62338;48.832;9.422;2022-10-16T13:31:44;26.00;1.00
4787;DHT22;62338;48.832;9.422;2022-10-16T13:33:50;27.20;1.00
4787;DHT22;62338;48.832;9.422;2022-10-16T13:35:56;27.80;99.90
4787;DHT22;62338;48.832;9.422;2022-10-16T13:40:21;29.30;99.90
4787;DHT22;62338;48.832;9.422;2022-10-16T13:42:27;29.30;99.90
4787;DHT22;62338;48.832;9.422;2022-10-16T13:44:36;29.40;99.90
4787;DHT22;62338;48.832;9.422;2022-10-16T13:46:38;29.30;99.90
4787;DHT22;62338;48.832;9.422;2022-10-16T13:48:40;29.60;99.90
4787;DHT22;62338;48.832;9.422;2022-10-16T13:50:43;29.20;99.90
4787;DHT22;62338;48.832;9.422;2022-10-16T13:52:45;28.50;99.90
4787;DHT22;62338;48.832;9.422;2022-10-16T13:54:47;28.00;99.90
4787;DHT22;62338;48.832;9.422;2022-10-16T13:56:49;27.60;99.90
4787;DHT22;62338;48.832;9.422;2022-10-16T13:59:26;26.90;99.90
4787;DHT22;62338;48.832;9.422;2022-10-16T14:01:43;26.50;1.00
4787;DHT22;62338;48.832;9.422;2022-10-16T14:03:46;26.40;1.00
4787;DHT22;62338;48.832;9.422;2022-10-16T14:05:51;26.40;1.00
4787;DHT22;62338;48.832;9.422;2022-10-16T14:07:54;26.60;1.00
4787;DHT22;62338;48.832;9.422;2022-10-16T14:10:00;27.20;1.00
4787;DHT22;62338;48.832;9.422;2022-10-16T14:12:08;27.60;99.90
4787;DHT22;62338;48.832;9.422;2022-10-16T14:14:12;27.80;99.90
4787;DHT22;62338;48.832;9.422;2022-10-16T14:16:20;27.80;99.90
4787;DHT22;62338;48.832;9.422;2022-10-16T14:18:25;27.80;99.90
4787;DHT22;62338;48.832;9.422;2022-10-16T14:20:34;27.60;99.90
4787;DHT22;62338;48.832;9.422;2022-10-16T14:22:38;27.30;99.90
4787;DHT22;62338;48.832;9.422;2022-10-16T14:24:41;26.90;99.90
4787;DHT22;62338;48.832;9.422;2022-10-16T14:26:43;26.40;1.00
4787;DHT22;62338;48.832;9.422;2022-10-16T14:29:15;25.80;1.00
4787;DHT22;62338;48.832;9.422;2022-10-16T14:31:26;25.20;1.00
4787;DHT22;62338;48.832;9.422;2022-10-16T14:33:32;24.60;1.00
4787;DHT22;62338;48.832;9.422;2022-10-16T14:35:39;24.10;1.00
4787;DHT22;62338;48.832;9.422;2022-10-16T14:37:41;23.70;99.90
4787;DHT22;62338;48.832;9.422;2022-10-16T14:39:49;23.30;1.00
4787;DHT22;62338;48.832;9.422;2022-10-16T14:41:55;23.00;99.90
4787;DHT22;62338;48.832;9.422;2022-10-16T14:44:03;23.00;1.00
4787;DHT22;62338;48.832;9.422;2022-10-16T14:46:13;23.00;99.90
4787;DHT22;62338;48.832;9.422;2022-10-16T14:48:17;22.80;1.00
4787;DHT22;62338;48.832;9.422;2022-10-16T14:50:21;22.80;99.90
4787;DHT22;62338;48.832;9.422;2022-10-16T14:52:23;22.70;1.00
4787;DHT22;62338;48.832;9.422;2022-10-16T14:54:24;22.50;99.90